createdAt,value
2022-10-01T00:06:40.630Z,17.12
2022-10-01T00:13:23.604Z,18.46
2022-10-01T00:20:13.970Z,16.19
2022-10-01T00:26:57.272Z,16.64
2022-10-01T00:33:40.080Z,18.11
2022-10-01T00:40:22.984Z,15.77
2022-10-01T00:47:20.462Z,16.20
2022-10-01T00:54:03.411Z,18.02
2022-10-01T01:00:46.282Z,17.18
2022-10-01T01:07:32.118Z,16.86
2022-10-01T01:14:23.704Z,18.35
2022-10-01T01:35:18.319Z,17.92
2022-10-01T01:42:02.354Z,15.90
2022-10-01T01:48:45.461Z,16.39
2022-10-01T01:55:27.213Z,17.93
2022-10-01T02:02:18.948Z,17.34
2022-10-01T02:09:09.100Z,15.45
2022-10-01T02:16:03.670Z,16.32
2022-10-01T02:22:55.385Z,18.41
2022-10-01T02:29:38.164Z,16.97
2022-10-01T02:36:20.895Z,16.97
2022-10-01T02:43:05.463Z,17.99
2022-10-01T02:49:47.998Z,15.92
2022-10-01T02:56:31.194Z,16.22
2022-10-01T03:03:13.862Z,17.50
2022-10-01T03:09:56.597Z,18.04
2022-10-01T03:16:39.381Z,15.93
2022-10-01T03:23:22.151Z,16.42
2022-10-01T03:30:05.059Z,18.17
2022-10-01T03:36:47.717Z,16.26
2022-10-01T03:43:30.506Z,16.75
2022-10-01T03:50:13.217Z,16.94
2022-10-01T03:56:55.808Z,16.74
2022-10-01T04:03:38.604Z,16.72
2022-10-01T04:10:21.380Z,14.87
2022-10-01T04:17:04.797Z,16.23
2022-10-01T04:23:47.662Z,16.44
2022-10-01T04:30:30.634Z,14.40
2022-10-01T04:37:13.548Z,15.27
2022-10-01T04:43:56.142Z,15.76
2022-10-01T04:50:38.622Z,16.79
2022-10-01T04:57:21.464Z,14.74
2022-10-01T05:04:04.321Z,15.03
2022-10-01T05:10:47.237Z,16.82
2022-10-01T05:17:30.028Z,16.43
2022-10-01T05:24:12.562Z,14.38
2022-10-01T05:30:55.279Z,15.80
2022-10-01T05:37:37.648Z,17.35
2022-10-01T05:44:20.442Z,16.33
2022-10-01T05:50:02.908Z,16.26
2022-10-01T05:55:37.640Z,17.47
2022-10-01T06:01:43.320Z,17.09
2022-10-01T06:08:25.755Z,15.24
2022-10-01T06:15:08.517Z,15.84
2022-10-01T06:21:51.341Z,17.73
2022-10-01T06:28:34.021Z,17.16
2022-10-01T06:35:17.317Z,16.89
2022-10-01T06:42:00.701Z,17.92
2022-10-01T06:48:45.656Z,18.68
2022-10-01T06:55:28.434Z,17.24
2022-10-01T07:02:15.121Z,17.16
2022-10-01T07:08:59.167Z,18.46
2022-10-01T07:15:46.155Z,17.83
2022-10-01T07:22:29.208Z,17.35
2022-10-01T07:29:15.023Z,18.30
2022-10-01T07:35:57.975Z,19.14
2022-10-01T07:42:40.235Z,17.78
2022-10-01T07:49:23.064Z,17.82
2022-10-01T07:54:52.893Z,18.62
2022-10-01T08:01:15.566Z,19.13
2022-10-01T08:07:59.531Z,18.43
2022-10-01T08:13:42.759Z,17.19
2022-10-01T08:19:04.742Z,17.40
2022-10-01T08:24:27.103Z,19.17
2022-10-01T08:30:29.823Z,19.40
2022-10-01T08:36:33.697Z,17.87
2022-10-01T08:43:15.419Z,18.33
2022-10-01T08:50:04.121Z,19.71
2022-10-01T08:56:08.407Z,18.41
2022-10-01T09:02:00.868Z,18.61
2022-10-01T09:08:38.063Z,19.92
2022-10-01T09:14:47.486Z,19.00
2022-10-01T09:20:40.292Z,17.80
2022-10-01T09:27:03.686Z,18.10
2022-10-01T09:33:52.412Z,20.11
2022-10-01T09:40:17.554Z,18.76
2022-10-01T09:46:42.828Z,18.97
2022-10-01T09:52:22.732Z,20.56
2022-10-01T09:58:29.240Z,19.36
2022-10-01T10:03:59.210Z,18.08
2022-10-01T10:09:29.779Z,18.63
2022-10-01T10:14:59.109Z,20.07
2022-10-01T10:20:25.383Z,19.93
2022-10-01T10:26:07.504Z,18.65
2022-10-01T10:32:30.147Z,18.69
2022-10-01T10:38:52.833Z,19.62
2022-10-01T10:45:35.232Z,20.61
2022-10-01T10:52:23.453Z,20.10
2022-10-01T10:59:11.757Z,18.91
2022-10-01T11:05:54.250Z,19.58
2022-10-01T11:12:47.159Z,20.80
2022-10-01T11:19:26.732Z,19.63
2022-10-01T11:26:13.704Z,18.99
2022-10-01T11:32:37.374Z,19.46
2022-10-01T11:39:20.431Z,20.96
2022-10-01T11:46:14.220Z,20.03
2022-10-01T11:53:02.296Z,18.91
2022-10-01T12:00:14.067Z,19.44
2022-10-01T12:06:57.063Z,20.74
2022-10-01T12:13:40.741Z,19.60
2022-10-01T12:20:26.657Z,18.59
2022-10-01T12:27:16.359Z,19.18
2022-10-01T12:34:10.052Z,20.63
2022-10-01T12:41:23.109Z,19.64
2022-10-01T12:48:25.165Z,18.55
2022-10-01T13:49:21.229Z,18.52
2022-10-01T13:56:04.500Z,18.73
2022-10-01T14:03:02.706Z,19.85
2022-10-01T14:09:46.197Z,19.23
2022-10-01T14:16:47.336Z,17.92
2022-10-01T14:23:30.068Z,18.43
2022-10-01T14:30:18.750Z,19.66
2022-10-01T14:37:16.225Z,19.22
2022-10-01T14:44:07.332Z,17.90
2022-10-01T14:50:50.184Z,18.37
2022-10-01T14:57:34.106Z,19.18
2022-10-01T15:04:20.277Z,19.99
2022-10-01T15:11:06.485Z,19.29
2022-10-01T15:17:49.962Z,18.01
2022-10-01T15:24:32.950Z,18.09
2022-10-01T15:31:16.133Z,19.13
2022-10-01T15:37:58.912Z,18.56
2022-10-01T15:44:47.479Z,17.20
2022-10-01T15:51:09.853Z,17.84
2022-10-01T15:57:56.166Z,18.53
2022-10-01T16:04:41.696Z,18.58
2022-10-01T16:11:31.665Z,18.51
2022-10-01T16:18:20.476Z,18.52
2022-10-01T16:25:09.384Z,18.48
2022-10-01T16:31:52.299Z,16.98
2022-10-01T16:38:36.326Z,17.32
2022-10-01T16:45:21.357Z,18.02
2022-10-01T16:52:04.412Z,17.93
2022-10-01T16:58:49.731Z,18.29
2022-10-01T17:05:32.563Z,18.23
2022-10-01T17:12:16.821Z,18.38
2022-10-01T17:18:59.630Z,18.86
2022-10-01T17:25:42.983Z,18.04
2022-10-01T17:32:27.263Z,17.64
2022-10-01T17:39:10.106Z,18.31
2022-10-01T17:45:53.126Z,19.13
2022-10-01T17:52:36.309Z,18.06
2022-10-01T17:59:19.401Z,17.35
2022-10-01T18:06:04.521Z,17.53
2022-10-01T18:12:47.559Z,17.66
2022-10-01T18:26:39.408Z,17.19
2022-10-01T18:33:23.415Z,15.47
2022-10-01T18:40:12.711Z,15.72
2022-10-01T18:46:59.678Z,16.90
2022-10-01T18:53:45.052Z,14.70
2022-10-01T19:00:43.908Z,15.44
2022-10-01T19:34:17.289Z,17.91
2022-10-01T19:41:16.158Z,16.72
2022-10-01T19:48:08.995Z,16.85
2022-10-01T19:54:56.197Z,16.68
2022-10-01T20:08:11.517Z,17.05
2022-10-01T20:15:08.672Z,14.62
2022-10-01T20:22:07.233Z,15.87
2022-10-01T20:29:08.354Z,17.51
2022-10-01T20:35:57.067Z,15.44
2022-10-01T20:56:13.588Z,16.40
2022-10-01T21:03:12.636Z,14.26
2022-10-01T21:09:58.907Z,15.12
2022-10-01T21:16:57.104Z,16.76
2022-10-01T21:23:38.332Z,16.07
2022-10-01T21:30:30.016Z,13.96
2022-10-01T22:38:41.550Z,17.53
2022-10-01T22:45:24.636Z,15.61
2022-10-01T22:52:20.230Z,15.78
2022-10-01T22:59:21.938Z,17.14
2022-10-01T23:06:18.143Z,16.50
2022-10-01T23:47:23.799Z,17.30
2022-10-01T23:54:37.972Z,16.29
